Saticoy, California
Current Conditions -  °F | °C
As of 5:51 AM on Monday 24 Nov 2014 (Local Time) from KOXR Reporting Station
Clear Clear  
Wind Chill: 14°   Ceiling: Unl
Heat Index: 14°   Visibility: 10mi
Dew Point: -4°   Wind: 12mph
Humidity: 28%   Direction: 50°NE
Pressure: 30.17"   Gusts: NA
Location:  34.287°N, 119.172°W
Report Text: KOXR 241351Z AUTO 05010KT 10SM CLR 14/M04 A3017 RMK AO2 SLP215 T01391044
Loading
Personal Weather Stations






























Interactive Weather Map New forecast layout! Learn more

10-Day Weather Forecast

Advertisements
Track Severe Weather on mobile